sensor_id;sensor_type;location;lat;lon;timestamp;pressure;altitude;pressure_sealevel;temperature;humidity
27958;BME280;15295;42.658;23.374;2024-01-11T00:01:17;95502.19;;;2.11;47.54
27958;BME280;15295;42.658;23.374;2024-01-11T00:03:43;95500.31;;;2.03;47.53
27958;BME280;15295;42.658;23.374;2024-01-11T00:06:09;95500.91;;;2.08;47.65
27958;BME280;15295;42.658;23.374;2024-01-11T00:08:46;95498.22;;;2.08;47.50
27958;BME280;15295;42.658;23.374;2024-01-11T00:11:12;95495.50;;;2.08;47.44
27958;BME280;15295;42.658;23.374;2024-01-11T00:13:38;95494.91;;;2.03;47.44
27958;BME280;15295;42.658;23.374;2024-01-11T00:16:04;95487.78;;;1.98;47.91
27958;BME280;15295;42.658;23.374;2024-01-11T00:18:30;95487.59;;;1.95;48.36
27958;BME280;15295;42.658;23.374;2024-01-11T00:20:55;95482.88;;;1.92;48.48
27958;BME280;15295;42.658;23.374;2024-01-11T00:23:21;95476.19;;;1.98;48.36
27958;BME280;15295;42.658;23.374;2024-01-11T00:25:46;95481.09;;;2.04;48.27
27958;BME280;15295;42.658;23.374;2024-01-11T00:28:12;95479.97;;;2.05;48.10
27958;BME280;15295;42.658;23.374;2024-01-11T00:30:38;95482.03;;;2.08;48.07
27958;BME280;15295;42.658;23.374;2024-01-11T00:33:04;95465.75;;;1.96;47.83
27958;BME280;15295;42.658;23.374;2024-01-11T00:35:30;95464.81;;;1.92;47.87
27958;BME280;15295;42.658;23.374;2024-01-11T00:37:58;95453.38;;;1.87;48.12
27958;BME280;15295;42.658;23.374;2024-01-11T00:40:32;95472.56;;;1.94;47.95
27958;BME280;15295;42.658;23.374;2024-01-11T00:42:57;95455.75;;;1.88;47.78
27958;BME280;15295;42.658;23.374;2024-01-11T00:45:23;95462.28;;;1.87;47.77
27958;BME280;15295;42.658;23.374;2024-01-11T00:47:51;95469.22;;;1.97;47.62
27958;BME280;15295;42.658;23.374;2024-01-11T00:50:17;95472.09;;;1.92;47.55
27958;BME280;15295;42.658;23.374;2024-01-11T00:52:46;95468.75;;;1.86;47.70
27958;BME280;15295;42.658;23.374;2024-01-11T00:55:12;95461.03;;;1.68;47.59
27958;BME280;15295;42.658;23.374;2024-01-11T00:57:38;95469.91;;;1.77;47.90
27958;BME280;15295;42.658;23.374;2024-01-11T01:00:05;95455.78;;;1.71;47.80
27958;BME280;15295;42.658;23.374;2024-01-11T01:02:30;95459.13;;;1.77;47.80
27958;BME280;15295;42.658;23.374;2024-01-11T01:04:56;95444.88;;;1.68;47.59
27958;BME280;15295;42.658;23.374;2024-01-11T01:07:21;95457.72;;;1.62;47.66
27958;BME280;15295;42.658;23.374;2024-01-11T01:09:47;95458.84;;;1.52;48.05
27958;BME280;15295;42.658;23.374;2024-01-11T01:12:12;95439.66;;;1.37;47.85
27958;BME280;15295;42.658;23.374;2024-01-11T01:14:38;95455.03;;;1.53;48.03
27958;BME280;15295;42.658;23.374;2024-01-11T01:17:03;95457.88;;;1.66;48.04
27958;BME280;15295;42.658;23.374;2024-01-11T01:19:30;95456.31;;;1.65;47.80
27958;BME280;15295;42.658;23.374;2024-01-11T01:21:55;95448.69;;;1.58;47.50
27958;BME280;15295;42.658;23.374;2024-01-11T01:24:21;95458.50;;;1.54;47.61
27958;BME280;15295;42.658;23.374;2024-01-11T01:26:55;95460.91;;;1.55;47.48
27958;BME280;15295;42.658;23.374;2024-01-11T01:29:21;95450.13;;;1.47;47.37
27958;BME280;15295;42.658;23.374;2024-01-11T01:31:46;95448.53;;;1.46;47.35
27958;BME280;15295;42.658;23.374;2024-01-11T01:34:12;95452.84;;;1.38;47.23
27958;BME280;15295;42.658;23.374;2024-01-11T01:36:40;95424.31;;;1.20;47.31
27958;BME280;15295;42.658;23.374;2024-01-11T01:39:05;95437.28;;;1.35;47.29
27958;BME280;15295;42.658;23.374;2024-01-11T01:41:37;95445.22;;;1.40;47.41
27958;BME280;15295;42.658;23.374;2024-01-11T01:44:02;95418.47;;;1.27;47.50
27958;BME280;15295;42.658;23.374;2024-01-11T01:46:28;95432.72;;;1.27;47.48
27958;BME280;15295;42.658;23.374;2024-01-11T01:48:56;95420.81;;;1.28;47.56
27958;BME280;15295;42.658;23.374;2024-01-11T01:51:41;95428.13;;;1.36;47.50
27958;BME280;15295;42.658;23.374;2024-01-11T01:54:09;95431.44;;;1.33;47.54
27958;BME280;15295;42.658;23.374;2024-01-11T01:56:36;95418.13;;;1.28;47.53
27958;BME280;15295;42.658;23.374;2024-01-11T01:59:03;95429.41;;;1.30;47.58
27958;BME280;15295;42.658;23.374;2024-01-11T02:01:34;95414.97;;;1.26;47.54
27958;BME280;15295;42.658;23.374;2024-01-11T02:04:00;95394.88;;;1.15;47.28
27958;BME280;15295;42.658;23.374;2024-01-11T02:06:28;95412.94;;;1.23;47.24
27958;BME280;15295;42.658;23.374;2024-01-11T02:08:55;95403.09;;;1.10;47.66
27958;BME280;15295;42.658;23.374;2024-01-11T02:11:40;95410.84;;;1.20;47.65
27958;BME280;15295;42.658;23.374;2024-01-11T02:14:06;95411.81;;;1.24;47.46
27958;BME280;15295;42.658;23.374;2024-01-11T02:16:33;95401.22;;;1.19;47.45
27958;BME280;15295;42.658;23.374;2024-01-11T02:18:59;95398.53;;;1.19;47.40
27958;BME280;15295;42.658;23.374;2024-01-11T02:21:28;95404.03;;;1.23;47.19
27958;BME280;15295;42.658;23.374;2024-01-11T02:24:04;95403.56;;;1.29;47.09
27958;BME280;15295;42.658;23.374;2024-01-11T02:26:33;95405.16;;;1.30;46.84
27958;BME280;15295;42.658;23.374;2024-01-11T02:29:14;95395.34;;;1.26;46.74
27958;BME280;15295;42.658;23.374;2024-01-11T02:31:47;95395.81;;;1.19;46.41
27958;BME280;15295;42.658;23.374;2024-01-11T02:34:13;95386.34;;;1.05;46.35
27958;BME280;15295;42.658;23.374;2024-01-11T02:36:46;95399.16;;;1.08;46.15
27958;BME280;15295;42.658;23.374;2024-01-11T02:39:14;95400.09;;;1.03;46.10
27958;BME280;15295;42.658;23.374;2024-01-11T02:44:41;95409.75;;;1.04;46.07
27958;BME280;15295;42.658;23.374;2024-01-11T02:47:07;95371.63;;;0.85;46.05
27958;BME280;15295;42.658;23.374;2024-01-11T02:49:34;95384.13;;;0.90;45.90
27958;BME280;15295;42.658;23.374;2024-01-11T02:52:03;95399.16;;;0.99;46.23
27958;BME280;15295;42.658;23.374;2024-01-11T02:54:29;95386.34;;;0.96;45.93
27958;BME280;15295;42.658;23.374;2024-01-11T02:57:07;95391.72;;;0.96;45.94
27958;BME280;15295;42.658;23.374;2024-01-11T02:59:33;95391.53;;;0.93;46.04
27958;BME280;15295;42.658;23.374;2024-01-11T03:02:02;95389.97;;;0.92;46.21
27958;BME280;15295;42.658;23.374;2024-01-11T03:04:27;95375.72;;;0.91;45.99
27958;BME280;15295;42.658;23.374;2024-01-11T03:06:53;95390.44;;;0.94;45.96
27958;BME280;15295;42.658;23.374;2024-01-11T03:09:18;95390.75;;;1.01;45.80
27958;BME280;15295;42.658;23.374;2024-01-11T03:12:05;95392.81;;;0.95;45.55
27958;BME280;15295;42.658;23.374;2024-01-11T03:14:55;95389.31;;;0.95;45.66
27958;BME280;15295;42.658;23.374;2024-01-11T03:17:26;95366.84;;;0.82;45.92
27958;BME280;15295;42.658;23.374;2024-01-11T03:19:57;95389.03;;;0.96;45.73
27958;BME280;15295;42.658;23.374;2024-01-11T03:22:23;95380.16;;;0.87;45.82
27958;BME280;15295;42.658;23.374;2024-01-11T03:24:49;95366.22;;;0.68;45.96
27958;BME280;15295;42.658;23.374;2024-01-11T03:27:16;95379.03;;;0.79;46.04
27958;BME280;15295;42.658;23.374;2024-01-11T03:29:42;95365.28;;;0.72;46.03
27958;BME280;15295;42.658;23.374;2024-01-11T03:32:09;95383.66;;;0.88;45.97
27958;BME280;15295;42.658;23.374;2024-01-11T03:34:38;95378.88;;;0.85;45.95
27958;BME280;15295;42.658;23.374;2024-01-11T03:37:03;95381.59;;;0.85;45.76
27958;BME280;15295;42.658;23.374;2024-01-11T03:39:29;95355.13;;;0.52;46.26
27958;BME280;15295;42.658;23.374;2024-01-11T03:41:54;95370.66;;;0.64;46.43
27958;BME280;15295;42.658;23.374;2024-01-11T03:44:20;95373.66;;;0.71;46.18
27958;BME280;15295;42.658;23.374;2024-01-11T03:46:46;95372.22;;;0.73;46.40
27958;BME280;15295;42.658;23.374;2024-01-11T03:49:12;95364.16;;;0.65;46.14
27958;BME280;15295;42.658;23.374;2024-01-11T03:51:38;95365.09;;;0.69;45.94
27958;BME280;15295;42.658;23.374;2024-01-11T03:54:04;95369.53;;;0.65;46.09
27958;BME280;15295;42.658;23.374;2024-01-11T03:56:29;95327.28;;;0.40;46.20
27958;BME280;15295;42.658;23.374;2024-01-11T03:58:55;95370.19;;;0.70;46.02
27958;BME280;15295;42.658;23.374;2024-01-11T04:01:21;95348.13;;;0.43;46.37
27958;BME280;15295;42.658;23.374;2024-01-11T04:03:48;95372.22;;;0.56;46.12
27958;BME280;15295;42.658;23.374;2024-01-11T04:06:24;95367.63;;;0.57;46.53
27958;BME280;15295;42.658;23.374;2024-01-11T04:08:50;95351.34;;;0.45;46.31
27958;BME280;15295;42.658;23.374;2024-01-11T04:11:16;95359.88;;;0.47;46.45
27958;BME280;15295;42.658;23.374;2024-01-11T04:13:41;95354.00;;;0.36;46.82
27958;BME280;15295;42.658;23.374;2024-01-11T04:16:07;95359.38;;;0.36;46.70
27958;BME280;15295;42.658;23.374;2024-01-11T04:18:33;95357.47;;;0.37;46.67
27958;BME280;15295;42.658;23.374;2024-01-11T04:21:00;95325.97;;;0.20;46.97
27958;BME280;15295;42.658;23.374;2024-01-11T04:23:26;95348.94;;;0.35;46.83
27958;BME280;15295;42.658;23.374;2024-01-11T04:25:54;95347.19;;;0.39;47.29
27958;BME280;15295;42.658;23.374;2024-01-11T04:28:20;95335.50;;;0.35;47.51
27958;BME280;15295;42.658;23.374;2024-01-11T04:30:45;95346.25;;;0.43;47.17
27958;BME280;15295;42.658;23.374;2024-01-11T04:33:11;95335.66;;;0.30;47.05
27958;BME280;15295;42.658;23.374;2024-01-11T04:35:45;95343.88;;;0.33;47.35
27958;BME280;15295;42.658;23.374;2024-01-11T04:38:10;95350.81;;;0.34;47.20
27958;BME280;15295;42.658;23.374;2024-01-11T04:40:36;95352.88;;;0.37;47.24
27958;BME280;15295;42.658;23.374;2024-01-11T04:43:12;95353.69;;;0.38;47.01
27958;BME280;15295;42.658;23.374;2024-01-11T04:45:38;95351.31;;;0.36;46.71
27958;BME280;15295;42.658;23.374;2024-01-11T04:48:04;95355.25;;;0.39;46.66
27958;BME280;15295;42.658;23.374;2024-01-11T04:50:30;95353.03;;;0.32;46.59
27958;BME280;15295;42.658;23.374;2024-01-11T04:52:59;95356.38;;;0.29;46.85
27958;BME280;15295;42.658;23.374;2024-01-11T04:55:24;95352.41;;;0.27;46.86
27958;BME280;15295;42.658;23.374;2024-01-11T04:57:50;95343.84;;;0.25;46.65
27958;BME280;15295;42.658;23.374;2024-01-11T05:00:16;95329.13;;;0.14;46.60
27958;BME280;15295;42.658;23.374;2024-01-11T05:02:41;95358.72;;;0.31;46.86
27958;BME280;15295;42.658;23.374;2024-01-11T05:05:07;95363.31;;;0.30;46.87
27958;BME280;15295;42.658;23.374;2024-01-11T05:07:32;95361.25;;;0.19;46.82
27958;BME280;15295;42.658;23.374;2024-01-11T05:10:08;95369.78;;;0.21;47.05
27958;BME280;15295;42.658;23.374;2024-01-11T05:12:35;95360.13;;;0.20;47.03
27958;BME280;15295;42.658;23.374;2024-01-11T05:15:08;95350.78;;;0.17;47.09
27958;BME280;15295;42.658;23.374;2024-01-11T05:17:33;95355.69;;;0.24;48.01
27958;BME280;15295;42.658;23.374;2024-01-11T05:20:01;95339.09;;;0.22;47.42
27958;BME280;15295;42.658;23.374;2024-01-11T05:22:27;95321.38;;;0.12;47.09
27958;BME280;15295;42.658;23.374;2024-01-11T05:24:54;95337.69;;;0.24;46.87
27958;BME280;15295;42.658;23.374;2024-01-11T05:27:19;95319.31;;;0.09;46.92
27958;BME280;15295;42.658;23.374;2024-01-11T05:29:44;95341.66;;;0.27;46.88
27958;BME280;15295;42.658;23.374;2024-01-11T05:32:10;95331.97;;;0.26;46.60
27958;BME280;15295;42.658;23.374;2024-01-11T05:34:35;95330.56;;;0.20;46.76
27958;BME280;15295;42.658;23.374;2024-01-11T05:37:01;95327.25;;;0.23;46.66
27958;BME280;15295;42.658;23.374;2024-01-11T05:39:26;95332.31;;;0.33;46.55
27958;BME280;15295;42.658;23.374;2024-01-11T05:41:52;95318.25;;;0.19;46.70
27958;BME280;15295;42.658;23.374;2024-01-11T05:44:17;95330.91;;;0.27;46.96
27958;BME280;15295;42.658;23.374;2024-01-11T05:46:43;95332.50;;;0.28;46.99
27958;BME280;15295;42.658;23.374;2024-01-11T05:49:09;95329.28;;;0.26;47.16
27958;BME280;15295;42.658;23.374;2024-01-11T05:51:34;95323.16;;;0.25;46.88
27958;BME280;15295;42.658;23.374;2024-01-11T05:54:00;95307.03;;;0.25;47.13
27958;BME280;15295;42.658;23.374;2024-01-11T05:56:26;95326.81;;;0.38;46.99
27958;BME280;15295;42.658;23.374;2024-01-11T05:58:51;95323.00;;;0.39;47.04
27958;BME280;15295;42.658;23.374;2024-01-11T06:01:16;95302.41;;;0.26;47.15
27958;BME280;15295;42.658;23.374;2024-01-11T06:03:42;95312.25;;;0.39;47.00
27958;BME280;15295;42.658;23.374;2024-01-11T06:06:07;95311.28;;;0.35;47.17
27958;BME280;15295;42.658;23.374;2024-01-11T06:08:33;95320.78;;;0.41;46.99
27958;BME280;15295;42.658;23.374;2024-01-11T06:10:59;95316.19;;;0.41;47.11
27958;BME280;15295;42.658;23.374;2024-01-11T06:13:24;95313.69;;;0.45;47.07
27958;BME280;15295;42.658;23.374;2024-01-11T06:15:50;95308.59;;;0.43;47.12
27958;BME280;15295;42.658;23.374;2024-01-11T06:18:16;95307.03;;;0.42;47.35
27958;BME280;15295;42.658;23.374;2024-01-11T06:20:41;95315.13;;;0.51;47.28
27958;BME280;15295;42.658;23.374;2024-01-11T06:23:07;95316.38;;;0.62;47.22
27958;BME280;15295;42.658;23.374;2024-01-11T06:25:33;95317.00;;;0.67;47.41
27958;BME280;15295;42.658;23.374;2024-01-11T06:27:59;95299.75;;;0.68;47.27
27958;BME280;15295;42.658;23.374;2024-01-11T06:30:24;95314.47;;;0.71;47.22
27958;BME280;15295;42.658;23.374;2024-01-11T06:32:50;95306.09;;;0.72;47.13
27958;BME280;15295;42.658;23.374;2024-01-11T06:35:15;95305.63;;;0.79;47.23
27958;BME280;15295;42.658;23.374;2024-01-11T06:37:41;95303.22;;;0.77;47.21
27958;BME280;15295;42.658;23.374;2024-01-11T06:40:07;95298.03;;;0.81;47.53
27958;BME280;15295;42.658;23.374;2024-01-11T06:42:34;95285.53;;;0.76;47.14
27958;BME280;15295;42.658;23.374;2024-01-11T06:44:59;95293.13;;;0.74;47.50
27958;BME280;15295;42.658;23.374;2024-01-11T06:47:25;95293.88;;;0.75;47.04
27958;BME280;15295;42.658;23.374;2024-01-11T06:49:51;95284.72;;;0.76;47.51
27958;BME280;15295;42.658;23.374;2024-01-11T06:52:16;95285.03;;;0.83;47.22
27958;BME280;15295;42.658;23.374;2024-01-11T06:54:42;95271.75;;;0.78;47.65
27958;BME280;15295;42.658;23.374;2024-01-11T06:57:07;95295.47;;;0.93;47.14
27958;BME280;15295;42.658;23.374;2024-01-11T06:59:33;95289.47;;;0.96;46.96
27958;BME280;15295;42.658;23.374;2024-01-11T07:01:58;95275.38;;;0.82;46.80
27958;BME280;15295;42.658;23.374;2024-01-11T07:04:24;95290.09;;;0.93;46.18
27958;BME280;15295;42.658;23.374;2024-01-11T07:06:50;95283.91;;;0.93;46.05
27958;BME280;15295;42.658;23.374;2024-01-11T07:09:15;95284.56;;;0.98;45.76
27958;BME280;15295;42.658;23.374;2024-01-11T07:11:42;95293.38;;;1.07;45.69
27958;BME280;15295;42.658;23.374;2024-01-11T07:14:08;95295.44;;;1.10;45.99
27958;BME280;15295;42.658;23.374;2024-01-11T07:16:34;95297.78;;;1.20;46.41
27958;BME280;15295;42.658;23.374;2024-01-11T07:18:59;95294.94;;;1.25;46.61
27958;BME280;15295;42.658;23.374;2024-01-11T07:21:24;95289.16;;;1.44;46.48
27958;BME280;15295;42.658;23.374;2024-01-11T07:23:58;95284.16;;;1.72;46.65
27958;BME280;15295;42.658;23.374;2024-01-11T07:26:23;95285.19;;;2.79;45.64
27958;BME280;15295;42.658;23.374;2024-01-11T07:28:49;95290.44;;;3.98;43.09
27958;BME280;15295;42.658;23.374;2024-01-11T07:31:15;95290.84;;;4.88;40.43
27958;BME280;15295;42.658;23.374;2024-01-11T07:33:41;95285.38;;;5.55;39.53
27958;BME280;15295;42.658;23.374;2024-01-11T07:36:06;95282.94;;;6.12;38.23
27958;BME280;15295;42.658;23.374;2024-01-11T07:38:32;95285.78;;;6.51;36.90
27958;BME280;15295;42.658;23.374;2024-01-11T07:40:58;95294.56;;;6.98;36.25
27958;BME280;15295;42.658;23.374;2024-01-11T07:43:23;95292.59;;;7.33;35.19
27958;BME280;15295;42.658;23.374;2024-01-11T07:45:49;95275.03;;;7.31;35.13
27958;BME280;15295;42.658;23.374;2024-01-11T07:48:15;95299.72;;;7.41;35.07
27958;BME280;15295;42.658;23.374;2024-01-11T07:50:41;95296.03;;;7.53;35.22
27958;BME280;15295;42.658;23.374;2024-01-11T07:53:07;95276.78;;;7.61;34.42
27958;BME280;15295;42.658;23.374;2024-01-11T07:55:32;95291.88;;;7.78;34.03
27958;BME280;15295;42.658;23.374;2024-01-11T07:57:58;95285.56;;;7.97;34.47
27958;BME280;15295;42.658;23.374;2024-01-11T08:00:23;95273.78;;;8.12;33.42
27958;BME280;15295;42.658;23.374;2024-01-11T08:02:49;95271.72;;;8.28;33.56
27958;BME280;15295;42.658;23.374;2024-01-11T08:05:15;95271.94;;;8.42;32.96
27958;BME280;15295;42.658;23.374;2024-01-11T08:07:40;95284.03;;;8.71;32.77
27958;BME280;15295;42.658;23.374;2024-01-11T08:10:07;95274.97;;;8.89;32.21
27958;BME280;15295;42.658;23.374;2024-01-11T08:12:34;95274.34;;;9.03;31.76
27958;BME280;15295;42.658;23.374;2024-01-11T08:15:00;95278.47;;;9.19;31.78
27958;BME280;15295;42.658;23.374;2024-01-11T08:17:26;95262.13;;;9.23;31.45
27958;BME280;15295;42.658;23.374;2024-01-11T08:19:51;95279.94;;;9.47;31.64
27958;BME280;15295;42.658;23.374;2024-01-11T08:22:17;95260.66;;;9.66;31.45
27958;BME280;15295;42.658;23.374;2024-01-11T08:24:42;95253.41;;;9.80;30.77
27958;BME280;15295;42.658;23.374;2024-01-11T08:27:08;95266.94;;;9.70;30.66
27958;BME280;15295;42.658;23.374;2024-01-11T08:29:34;95263.25;;;9.92;30.71
27958;BME280;15295;42.658;23.374;2024-01-11T08:32:00;95262.16;;;10.00;30.93
27958;BME280;15295;42.658;23.374;2024-01-11T08:34:29;95252.06;;;10.04;30.40
27958;BME280;15295;42.658;23.374;2024-01-11T08:36:54;95245.19;;;10.17;30.51
27958;BME280;15295;42.658;23.374;2024-01-11T08:39:20;95237.38;;;10.19;30.27
27958;BME280;15295;42.658;23.374;2024-01-11T08:41:47;95263.34;;;10.46;30.36
27958;BME280;15295;42.658;23.374;2024-01-11T08:44:13;95270.09;;;10.63;30.18
27958;BME280;15295;42.658;23.374;2024-01-11T08:46:38;95261.16;;;10.69;29.69
27958;BME280;15295;42.658;23.374;2024-01-11T08:49:04;95265.13;;;10.79;29.37
27958;BME280;15295;42.658;23.374;2024-01-11T08:51:30;95250.31;;;10.87;29.52
27958;BME280;15295;42.658;23.374;2024-01-11T08:53:57;95244.16;;;11.01;29.42
27958;BME280;15295;42.658;23.374;2024-01-11T08:56:23;95256.78;;;11.26;29.02
27958;BME280;15295;42.658;23.374;2024-01-11T08:58:48;95254.50;;;11.53;28.77
27958;BME280;15295;42.658;23.374;2024-01-11T09:01:15;95225.19;;;11.50;28.44
27958;BME280;15295;42.658;23.374;2024-01-11T09:03:40;95251.47;;;11.83;28.66
27958;BME280;15295;42.658;23.374;2024-01-11T09:06:06;95239.41;;;12.01;27.82
27958;BME280;15295;42.658;23.374;2024-01-11T09:08:31;95217.88;;;12.03;27.79
27958;BME280;15295;42.658;23.374;2024-01-11T09:10:57;95239.78;;;12.53;27.56
27958;BME280;15295;42.658;23.374;2024-01-11T09:13:27;95233.47;;;12.66;27.68
27958;BME280;15295;42.658;23.374;2024-01-11T09:15:53;95229.50;;;12.92;27.31
27958;BME280;15295;42.658;23.374;2024-01-11T09:18:19;95229.06;;;13.18;26.50
27958;BME280;15295;42.658;23.374;2024-01-11T09:20:45;95224.78;;;13.17;26.25
27958;BME280;15295;42.658;23.374;2024-01-11T09:23:11;95222.38;;;13.30;26.32
27958;BME280;15295;42.658;23.374;2024-01-11T09:25:37;95219.19;;;13.35;26.62
27958;BME280;15295;42.658;23.374;2024-01-11T09:28:04;95212.16;;;13.27;26.68
27958;BME280;15295;42.658;23.374;2024-01-11T09:30:30;95214.41;;;13.53;26.73
27958;BME280;15295;42.658;23.374;2024-01-11T09:32:55;95187.72;;;13.53;26.42
27958;BME280;15295;42.658;23.374;2024-01-11T09:35:28;95210.47;;;13.54;26.02
27958;BME280;15295;42.658;23.374;2024-01-11T09:37:54;95201.16;;;13.30;26.44
27958;BME280;15295;42.658;23.374;2024-01-11T09:40:20;95207.00;;;13.43;25.91
27958;BME280;15295;42.658;23.374;2024-01-11T09:42:46;95194.31;;;13.66;25.78
27958;BME280;15295;42.658;23.374;2024-01-11T09:45:16;95145.63;;;13.70;25.08
27958;BME280;15295;42.658;23.374;2024-01-11T09:47:46;95168.63;;;13.90;25.05
27958;BME280;15295;42.658;23.374;2024-01-11T09:50:15;95169.34;;;14.02;25.25
27958;BME280;15295;42.658;23.374;2024-01-11T09:52:52;95163.22;;;14.31;25.24
27958;BME280;15295;42.658;23.374;2024-01-11T09:55:18;95160.63;;;14.58;25.17
27958;BME280;15295;42.658;23.374;2024-01-11T09:57:47;95109.47;;;14.64;24.76
27958;BME280;15295;42.658;23.374;2024-01-11T10:00:19;95124.13;;;14.88;24.45
27958;BME280;15295;42.658;23.374;2024-01-11T10:02:47;95134.94;;;15.05;24.53
27958;BME280;15295;42.658;23.374;2024-01-11T10:05:12;95142.72;;;15.40;24.17
27958;BME280;15295;42.658;23.374;2024-01-11T10:07:41;95137.72;;;15.32;24.20
27958;BME280;15295;42.658;23.374;2024-01-11T10:10:07;95137.31;;;15.03;23.92
27958;BME280;15295;42.658;23.374;2024-01-11T10:12:36;95129.06;;;15.03;24.55
27958;BME280;15295;42.658;23.374;2024-01-11T10:15:07;95117.84;;;15.17;24.09
27958;BME280;15295;42.658;23.374;2024-01-11T10:17:41;95124.00;;;15.28;24.14
27958;BME280;15295;42.658;23.374;2024-01-11T10:20:08;95117.38;;;15.53;23.85
27958;BME280;15295;42.658;23.374;2024-01-11T10:22:36;95112.56;;;15.60;23.48
27958;BME280;15295;42.658;23.374;2024-01-11T10:25:12;95117.31;;;15.83;23.57
27958;BME280;15295;42.658;23.374;2024-01-11T10:27:40;95110.44;;;15.94;23.56
27958;BME280;15295;42.658;23.374;2024-01-11T10:30:07;95103.97;;;16.04;23.31
27958;BME280;15295;42.658;23.374;2024-01-11T10:32:33;95092.91;;;16.08;23.09
27958;BME280;15295;42.658;23.374;2024-01-11T10:35:01;95094.94;;;16.27;22.94
27958;BME280;15295;42.658;23.374;2024-01-11T10:37:30;95087.78;;;16.30;23.26
27958;BME280;15295;42.658;23.374;2024-01-11T10:39:58;95087.44;;;16.51;22.66
27958;BME280;15295;42.658;23.374;2024-01-11T10:42:26;95076.47;;;16.67;22.75
27958;BME280;15295;42.658;23.374;2024-01-11T10:44:54;95078.31;;;16.73;22.75
27958;BME280;15295;42.658;23.374;2024-01-11T10:47:21;95081.78;;;16.77;23.12
27958;BME280;15295;42.658;23.374;2024-01-11T10:49:50;95069.94;;;16.57;22.60
27958;BME280;15295;42.658;23.374;2024-01-11T10:52:21;95070.94;;;16.24;23.03
27958;BME280;15295;42.658;23.374;2024-01-11T10:54:48;95065.25;;;16.11;23.54
27958;BME280;15295;42.658;23.374;2024-01-11T10:57:16;95069.22;;;16.34;23.12
27958;BME280;15295;42.658;23.374;2024-01-11T10:59:42;95055.22;;;16.44;23.29
27958;BME280;15295;42.658;23.374;2024-01-11T11:02:09;95050.22;;;16.59;22.99
27958;BME280;15295;42.658;23.374;2024-01-11T11:04:38;95044.13;;;16.67;23.20
27958;BME280;15295;42.658;23.374;2024-01-11T11:07:05;95038.84;;;16.76;22.76
27958;BME280;15295;42.658;23.374;2024-01-11T11:09:34;95040.38;;;16.77;22.89
27958;BME280;15295;42.658;23.374;2024-01-11T11:12:00;95033.44;;;16.89;23.00
27958;BME280;15295;42.658;23.374;2024-01-11T11:14:27;95023.00;;;16.96;22.29
27958;BME280;15295;42.658;23.374;2024-01-11T11:16:53;95024.81;;;17.23;22.03
27958;BME280;15295;42.658;23.374;2024-01-11T11:19:20;95016.88;;;17.41;21.94
27958;BME280;15295;42.658;23.374;2024-01-11T11:21:47;95009.59;;;17.50;21.83
27958;BME280;15295;42.658;23.374;2024-01-11T11:24:13;94997.50;;;17.60;21.74
27958;BME280;15295;42.658;23.374;2024-01-11T11:26:39;94999.53;;;17.40;21.75
27958;BME280;15295;42.658;23.374;2024-01-11T11:29:05;94993.06;;;17.47;21.34
27958;BME280;15295;42.658;23.374;2024-01-11T11:31:41;94988.75;;;17.46;22.06
27958;BME280;15295;42.658;23.374;2024-01-11T11:34:12;94982.31;;;17.52;21.56
27958;BME280;15295;42.658;23.374;2024-01-11T11:36:40;94971.31;;;17.65;22.11
27958;BME280;15295;42.658;23.374;2024-01-11T11:39:10;94972.69;;;17.73;21.72
27958;BME280;15295;42.658;23.374;2024-01-11T11:41:37;94968.84;;;17.70;21.57
27958;BME280;15295;42.658;23.374;2024-01-11T11:44:04;94961.22;;;17.58;21.60
27958;BME280;15295;42.658;23.374;2024-01-11T11:46:31;94952.66;;;17.69;21.49
27958;BME280;15295;42.658;23.374;2024-01-11T11:48:58;94950.22;;;17.71;21.33
27958;BME280;15295;42.658;23.374;2024-01-11T11:51:24;94959.91;;;17.47;22.33
27958;BME280;15295;42.658;23.374;2024-01-11T11:53:51;94943.75;;;17.29;22.24
27958;BME280;15295;42.658;23.374;2024-01-11T11:56:18;94948.28;;;17.55;21.99
27958;BME280;15295;42.658;23.374;2024-01-11T11:58:46;94941.03;;;17.61;21.68
27958;BME280;15295;42.658;23.374;2024-01-11T12:01:13;94940.41;;;17.54;21.99
27958;BME280;15295;42.658;23.374;2024-01-11T12:03:41;94947.34;;;17.62;21.99
27958;BME280;15295;42.658;23.374;2024-01-11T12:06:08;94933.31;;;17.69;21.88
27958;BME280;15295;42.658;23.374;2024-01-11T12:08:36;94929.88;;;17.49;22.24
27958;BME280;15295;42.658;23.374;2024-01-11T12:11:02;94926.31;;;17.64;21.81
27958;BME280;15295;42.658;23.374;2024-01-11T12:13:28;94926.19;;;17.55;22.16
27958;BME280;15295;42.658;23.374;2024-01-11T12:15:53;94916.31;;;17.54;22.39
27958;BME280;15295;42.658;23.374;2024-01-11T12:18:19;94918.03;;;17.48;22.34
27958;BME280;15295;42.658;23.374;2024-01-11T12:20:45;94911.53;;;17.39;22.41
27958;BME280;15295;42.658;23.374;2024-01-11T12:23:11;94897.84;;;17.35;21.87
27958;BME280;15295;42.658;23.374;2024-01-11T12:25:42;94895.41;;;17.37;22.66
27958;BME280;15295;42.658;23.374;2024-01-11T12:28:08;94896.72;;;17.33;21.97
27958;BME280;15295;42.658;23.374;2024-01-11T12:30:34;94897.91;;;17.16;22.74
27958;BME280;15295;42.658;23.374;2024-01-11T12:33:00;94886.00;;;17.03;22.87
27958;BME280;15295;42.658;23.374;2024-01-11T12:35:30;94892.94;;;17.11;22.59
27958;BME280;15295;42.658;23.374;2024-01-11T12:37:59;94881.34;;;16.83;22.60
27958;BME280;15295;42.658;23.374;2024-01-11T12:40:25;94873.84;;;16.48;22.67
27958;BME280;15295;42.658;23.374;2024-01-11T12:42:56;94875.25;;;16.56;23.19
27958;BME280;15295;42.658;23.374;2024-01-11T12:45:22;94873.31;;;16.73;23.73
27958;BME280;15295;42.658;23.374;2024-01-11T12:47:51;94870.47;;;16.92;23.37
27958;BME280;15295;42.658;23.374;2024-01-11T12:50:17;94859.44;;;17.25;22.80
27958;BME280;15295;42.658;23.374;2024-01-11T12:52:43;94851.44;;;17.43;22.80
27958;BME280;15295;42.658;23.374;2024-01-11T12:55:17;94854.75;;;17.54;22.59
27958;BME280;15295;42.658;23.374;2024-01-11T12:57:43;94848.47;;;17.53;21.93
27958;BME280;15295;42.658;23.374;2024-01-11T13:00:14;94857.59;;;17.34;22.94